sensor_id;sensor_type;location;lat;lon;timestamp;temperature;humidity
39777;DHT22;25453;48.162;14.510;2024-03-06T00:01:08;9.10;66.30
39777;DHT22;25453;48.162;14.510;2024-03-06T00:03:35;9.00;66.00
39777;DHT22;25453;48.162;14.510;2024-03-06T00:06:02;8.90;65.90
39777;DHT22;25453;48.162;14.510;2024-03-06T00:08:30;8.90;65.80
39777;DHT22;25453;48.162;14.510;2024-03-06T00:10:57;8.90;66.30
39777;DHT22;25453;48.162;14.510;2024-03-06T00:13:25;8.90;66.00
39777;DHT22;25453;48.162;14.510;2024-03-06T00:15:52;8.90;65.70
39777;DHT22;25453;48.162;14.510;2024-03-06T00:18:19;8.80;65.60
39777;DHT22;25453;48.162;14.510;2024-03-06T00:20:46;8.70;65.60
39777;DHT22;25453;48.162;14.510;2024-03-06T00:23:13;8.70;66.10
39777;DHT22;25453;48.162;14.510;2024-03-06T00:25:41;8.70;66.00
39777;DHT22;25453;48.162;14.510;2024-03-06T00:28:08;8.70;65.70
39777;DHT22;25453;48.162;14.510;2024-03-06T00:30:39;8.70;65.80
39777;DHT22;25453;48.162;14.510;2024-03-06T00:33:06;8.70;66.00
39777;DHT22;25453;48.162;14.510;2024-03-06T00:35:34;8.70;65.80
39777;DHT22;25453;48.162;14.510;2024-03-06T00:38:01;8.60;65.60
39777;DHT22;25453;48.162;14.510;2024-03-06T00:40:29;8.60;65.70
39777;DHT22;25453;48.162;14.510;2024-03-06T00:42:58;8.60;65.60
39777;DHT22;25453;48.162;14.510;2024-03-06T00:45:25;8.50;65.50
39777;DHT22;25453;48.162;14.510;2024-03-06T00:47:52;8.50;65.40
39777;DHT22;25453;48.162;14.510;2024-03-06T00:50:20;8.40;65.40
39777;DHT22;25453;48.162;14.510;2024-03-06T00:52:49;8.40;65.50
39777;DHT22;25453;48.162;14.510;2024-03-06T00:55:16;8.30;65.50
39777;DHT22;25453;48.162;14.510;2024-03-06T00:57:44;8.30;65.50
39777;DHT22;25453;48.162;14.510;2024-03-06T01:00:11;8.30;65.50
39777;DHT22;25453;48.162;14.510;2024-03-06T01:02:39;8.30;65.50
39777;DHT22;25453;48.162;14.510;2024-03-06T01:05:07;8.30;65.40
39777;DHT22;25453;48.162;14.510;2024-03-06T01:07:39;8.30;65.30
39777;DHT22;25453;48.162;14.510;2024-03-06T01:10:08;8.30;65.50
39777;DHT22;25453;48.162;14.510;2024-03-06T01:12:35;8.30;65.30
39777;DHT22;25453;48.162;14.510;2024-03-06T01:15:03;8.20;65.20
39777;DHT22;25453;48.162;14.510;2024-03-06T01:17:30;8.20;65.10
39777;DHT22;25453;48.162;14.510;2024-03-06T01:19:58;8.20;65.00
39777;DHT22;25453;48.162;14.510;2024-03-06T01:22:26;8.10;65.00
39777;DHT22;25453;48.162;14.510;2024-03-06T01:24:53;8.10;65.00
39777;DHT22;25453;48.162;14.510;2024-03-06T01:27:20;8.00;65.20
39777;DHT22;25453;48.162;14.510;2024-03-06T01:29:48;8.00;65.10
39777;DHT22;25453;48.162;14.510;2024-03-06T01:32:15;8.00;65.10
39777;DHT22;25453;48.162;14.510;2024-03-06T01:34:43;7.90;65.10
39777;DHT22;25453;48.162;14.510;2024-03-06T01:37:10;7.90;65.00
39777;DHT22;25453;48.162;14.510;2024-03-06T01:39:37;7.80;65.10
39777;DHT22;25453;48.162;14.510;2024-03-06T01:42:04;7.80;65.10
39777;DHT22;25453;48.162;14.510;2024-03-06T01:44:32;7.80;65.20
39777;DHT22;25453;48.162;14.510;2024-03-06T01:46:59;7.70;65.10
39777;DHT22;25453;48.162;14.510;2024-03-06T01:49:26;7.70;65.30
39777;DHT22;25453;48.162;14.510;2024-03-06T01:52:09;7.70;65.30
39777;DHT22;25453;48.162;14.510;2024-03-06T01:54:39;7.80;65.50
39777;DHT22;25453;48.162;14.510;2024-03-06T01:57:07;7.80;65.50
39777;DHT22;25453;48.162;14.510;2024-03-06T01:59:34;7.80;65.50
39777;DHT22;25453;48.162;14.510;2024-03-06T02:02:03;7.80;65.50
39777;DHT22;25453;48.162;14.510;2024-03-06T02:04:31;7.70;65.50
39777;DHT22;25453;48.162;14.510;2024-03-06T02:07:00;7.70;65.60
39777;DHT22;25453;48.162;14.510;2024-03-06T02:09:28;7.70;65.60
39777;DHT22;25453;48.162;14.510;2024-03-06T02:11:55;7.70;65.70
39777;DHT22;25453;48.162;14.510;2024-03-06T02:14:23;7.80;65.90
39777;DHT22;25453;48.162;14.510;2024-03-06T02:16:50;7.80;66.00
39777;DHT22;25453;48.162;14.510;2024-03-06T02:19:17;7.80;65.70
39777;DHT22;25453;48.162;14.510;2024-03-06T02:21:45;7.80;65.70
39777;DHT22;25453;48.162;14.510;2024-03-06T02:24:12;7.80;66.00
39777;DHT22;25453;48.162;14.510;2024-03-06T02:26:41;7.80;65.70
39777;DHT22;25453;48.162;14.510;2024-03-06T02:29:09;7.70;65.90
39777;DHT22;25453;48.162;14.510;2024-03-06T02:31:37;7.70;66.10
39777;DHT22;25453;48.162;14.510;2024-03-06T02:34:06;7.80;66.10
39777;DHT22;25453;48.162;14.510;2024-03-06T02:36:33;7.80;66.10
39777;DHT22;25453;48.162;14.510;2024-03-06T02:39:00;7.80;65.80
39777;DHT22;25453;48.162;14.510;2024-03-06T02:41:31;7.80;66.00
39777;DHT22;25453;48.162;14.510;2024-03-06T02:43:58;7.80;65.90
39777;DHT22;25453;48.162;14.510;2024-03-06T02:46:25;7.80;65.80
39777;DHT22;25453;48.162;14.510;2024-03-06T02:48:53;7.80;65.80
39777;DHT22;25453;48.162;14.510;2024-03-06T02:51:21;7.80;65.90
39777;DHT22;25453;48.162;14.510;2024-03-06T02:53:49;7.80;65.70
39777;DHT22;25453;48.162;14.510;2024-03-06T02:56:20;7.80;65.40
39777;DHT22;25453;48.162;14.510;2024-03-06T02:58:47;7.80;65.30
39777;DHT22;25453;48.162;14.510;2024-03-06T03:01:15;7.70;65.70
39777;DHT22;25453;48.162;14.510;2024-03-06T03:03:42;7.70;65.80
39777;DHT22;25453;48.162;14.510;2024-03-06T03:06:11;7.70;66.10
39777;DHT22;25453;48.162;14.510;2024-03-06T03:08:39;7.70;66.10
39777;DHT22;25453;48.162;14.510;2024-03-06T03:11:06;7.80;66.20
39777;DHT22;25453;48.162;14.510;2024-03-06T03:13:34;7.90;66.50
39777;DHT22;25453;48.162;14.510;2024-03-06T03:16:02;7.90;66.40
39777;DHT22;25453;48.162;14.510;2024-03-06T03:18:31;8.00;65.90
39777;DHT22;25453;48.162;14.510;2024-03-06T03:20:58;7.90;65.80
39777;DHT22;25453;48.162;14.510;2024-03-06T03:23:25;7.90;65.70
39777;DHT22;25453;48.162;14.510;2024-03-06T03:25:52;7.90;65.80
39777;DHT22;25453;48.162;14.510;2024-03-06T03:28:19;7.90;65.80
39777;DHT22;25453;48.162;14.510;2024-03-06T03:30:47;7.90;65.90
39777;DHT22;25453;48.162;14.510;2024-03-06T03:33:14;7.80;65.90
39777;DHT22;25453;48.162;14.510;2024-03-06T03:35:41;7.80;66.10
39777;DHT22;25453;48.162;14.510;2024-03-06T03:38:08;7.80;66.10
39777;DHT22;25453;48.162;14.510;2024-03-06T03:40:36;7.80;66.20
39777;DHT22;25453;48.162;14.510;2024-03-06T03:43:03;7.80;66.30
39777;DHT22;25453;48.162;14.510;2024-03-06T03:45:33;7.80;66.40
39777;DHT22;25453;48.162;14.510;2024-03-06T03:48:02;7.80;66.60
39777;DHT22;25453;48.162;14.510;2024-03-06T03:50:32;7.90;66.70
39777;DHT22;25453;48.162;14.510;2024-03-06T03:53:00;7.90;66.90
39777;DHT22;25453;48.162;14.510;2024-03-06T03:55:28;7.90;66.80
39777;DHT22;25453;48.162;14.510;2024-03-06T03:57:55;7.90;66.80
39777;DHT22;25453;48.162;14.510;2024-03-06T04:00:24;7.90;66.90
39777;DHT22;25453;48.162;14.510;2024-03-06T04:02:51;8.00;67.00
39777;DHT22;25453;48.162;14.510;2024-03-06T04:05:18;8.00;67.20
39777;DHT22;25453;48.162;14.510;2024-03-06T04:07:45;8.00;67.40
39777;DHT22;25453;48.162;14.510;2024-03-06T04:10:13;8.00;67.60
39777;DHT22;25453;48.162;14.510;2024-03-06T04:12:40;8.10;67.80
39777;DHT22;25453;48.162;14.510;2024-03-06T04:15:08;8.10;68.00
39777;DHT22;25453;48.162;14.510;2024-03-06T04:17:35;8.10;68.10
39777;DHT22;25453;48.162;14.510;2024-03-06T04:20:08;8.20;68.20
39777;DHT22;25453;48.162;14.510;2024-03-06T04:22:39;8.30;68.40
39777;DHT22;25453;48.162;14.510;2024-03-06T04:25:08;8.30;68.50
39777;DHT22;25453;48.162;14.510;2024-03-06T04:27:36;8.40;68.70
39777;DHT22;25453;48.162;14.510;2024-03-06T04:30:04;8.40;68.90
39777;DHT22;25453;48.162;14.510;2024-03-06T04:32:32;8.50;69.00
39777;DHT22;25453;48.162;14.510;2024-03-06T04:34:59;8.50;69.10
39777;DHT22;25453;48.162;14.510;2024-03-06T04:37:26;8.50;69.30
39777;DHT22;25453;48.162;14.510;2024-03-06T04:39:54;8.60;69.50
39777;DHT22;25453;48.162;14.510;2024-03-06T04:42:21;8.70;69.60
39777;DHT22;25453;48.162;14.510;2024-03-06T04:44:48;8.70;69.80
39777;DHT22;25453;48.162;14.510;2024-03-06T04:47:15;8.70;70.00
39777;DHT22;25453;48.162;14.510;2024-03-06T04:49:43;8.70;70.10
39777;DHT22;25453;48.162;14.510;2024-03-06T04:52:11;8.80;70.30
39777;DHT22;25453;48.162;14.510;2024-03-06T04:54:38;8.80;70.40
39777;DHT22;25453;48.162;14.510;2024-03-06T04:57:06;8.80;70.60
39777;DHT22;25453;48.162;14.510;2024-03-06T04:59:33;8.90;70.80
39777;DHT22;25453;48.162;14.510;2024-03-06T05:02:01;8.90;70.80
39777;DHT22;25453;48.162;14.510;2024-03-06T05:04:30;8.90;70.70
39777;DHT22;25453;48.162;14.510;2024-03-06T05:07:14;9.00;70.70
39777;DHT22;25453;48.162;14.510;2024-03-06T05:10:00;9.00;70.60
39777;DHT22;25453;48.162;14.510;2024-03-06T05:12:44;9.10;70.70
39777;DHT22;25453;48.162;14.510;2024-03-06T05:15:29;9.10;70.50
39777;DHT22;25453;48.162;14.510;2024-03-06T05:18:14;9.10;70.20
39777;DHT22;25453;48.162;14.510;2024-03-06T05:20:58;9.10;70.20
39777;DHT22;25453;48.162;14.510;2024-03-06T05:23:42;9.10;70.20
39777;DHT22;25453;48.162;14.510;2024-03-06T05:26:27;9.00;69.90
39777;DHT22;25453;48.162;14.510;2024-03-06T05:29:12;9.00;69.90
39777;DHT22;25453;48.162;14.510;2024-03-06T05:31:56;9.00;70.00
39777;DHT22;25453;48.162;14.510;2024-03-06T05:34:41;8.90;69.90
39777;DHT22;25453;48.162;14.510;2024-03-06T05:37:26;8.90;70.20
39777;DHT22;25453;48.162;14.510;2024-03-06T05:40:13;8.90;70.30
39777;DHT22;25453;48.162;14.510;2024-03-06T05:42:58;9.00;70.20
39777;DHT22;25453;48.162;14.510;2024-03-06T05:45:42;9.00;70.50
39777;DHT22;25453;48.162;14.510;2024-03-06T05:48:27;9.00;70.70
39777;DHT22;25453;48.162;14.510;2024-03-06T05:51:11;9.00;71.30
39777;DHT22;25453;48.162;14.510;2024-03-06T05:53:56;9.10;71.50
39777;DHT22;25453;48.162;14.510;2024-03-06T05:56:40;9.10;71.60
39777;DHT22;25453;48.162;14.510;2024-03-06T05:59:26;9.10;71.50
39777;DHT22;25453;48.162;14.510;2024-03-06T06:01:53;9.10;71.50
39777;DHT22;25453;48.162;14.510;2024-03-06T06:04:20;9.20;71.60
39777;DHT22;25453;48.162;14.510;2024-03-06T06:06:48;9.20;71.80
39777;DHT22;25453;48.162;14.510;2024-03-06T06:09:16;9.20;71.90
39777;DHT22;25453;48.162;14.510;2024-03-06T06:11:44;9.30;72.10
39777;DHT22;25453;48.162;14.510;2024-03-06T06:14:12;9.30;72.20
39777;DHT22;25453;48.162;14.510;2024-03-06T06:16:40;9.40;72.20
39777;DHT22;25453;48.162;14.510;2024-03-06T06:19:07;9.40;72.30
39777;DHT22;25453;48.162;14.510;2024-03-06T06:21:35;9.40;72.50
39777;DHT22;25453;48.162;14.510;2024-03-06T06:24:04;9.40;72.50
39777;DHT22;25453;48.162;14.510;2024-03-06T06:26:32;9.50;72.50
39777;DHT22;25453;48.162;14.510;2024-03-06T06:29:00;9.50;72.60
39777;DHT22;25453;48.162;14.510;2024-03-06T06:31:28;9.50;72.60
39777;DHT22;25453;48.162;14.510;2024-03-06T06:33:55;9.60;72.50
39777;DHT22;25453;48.162;14.510;2024-03-06T06:36:23;9.60;72.70
39777;DHT22;25453;48.162;14.510;2024-03-06T06:38:50;9.60;72.80
39777;DHT22;25453;48.162;14.510;2024-03-06T06:41:18;9.70;72.90
39777;DHT22;25453;48.162;14.510;2024-03-06T06:43:46;9.70;73.00
39777;DHT22;25453;48.162;14.510;2024-03-06T06:46:13;9.80;72.90
39777;DHT22;25453;48.162;14.510;2024-03-06T06:48:40;9.80;72.90
39777;DHT22;25453;48.162;14.510;2024-03-06T06:51:07;9.90;72.80
39777;DHT22;25453;48.162;14.510;2024-03-06T06:53:34;9.90;72.50
39777;DHT22;25453;48.162;14.510;2024-03-06T06:56:04;9.80;72.50
39777;DHT22;25453;48.162;14.510;2024-03-06T06:58:31;9.80;72.80
39777;DHT22;25453;48.162;14.510;2024-03-06T07:00:58;9.90;72.80
39777;DHT22;25453;48.162;14.510;2024-03-06T07:03:25;9.90;72.80
39777;DHT22;25453;48.162;14.510;2024-03-06T07:05:57;9.90;72.80
39777;DHT22;25453;48.162;14.510;2024-03-06T07:08:24;9.90;72.30
39777;DHT22;25453;48.162;14.510;2024-03-06T07:10:51;9.90;72.30
39777;DHT22;25453;48.162;14.510;2024-03-06T07:13:22;9.90;72.30
39777;DHT22;25453;48.162;14.510;2024-03-06T07:15:49;9.90;72.20
39777;DHT22;25453;48.162;14.510;2024-03-06T07:18:16;9.90;72.50
39777;DHT22;25453;48.162;14.510;2024-03-06T07:20:43;9.90;72.30
39777;DHT22;25453;48.162;14.510;2024-03-06T07:23:11;9.90;72.50
39777;DHT22;25453;48.162;14.510;2024-03-06T07:25:38;10.00;72.30
39777;DHT22;25453;48.162;14.510;2024-03-06T07:28:06;10.00;72.20
39777;DHT22;25453;48.162;14.510;2024-03-06T07:30:33;10.00;72.20
39777;DHT22;25453;48.162;14.510;2024-03-06T07:33:02;10.00;72.30
39777;DHT22;25453;48.162;14.510;2024-03-06T07:35:32;10.10;72.10
39777;DHT22;25453;48.162;14.510;2024-03-06T07:37:59;10.10;72.10
39777;DHT22;25453;48.162;14.510;2024-03-06T07:40:26;10.10;72.00
39777;DHT22;25453;48.162;14.510;2024-03-06T07:42:54;10.20;72.00
39777;DHT22;25453;48.162;14.510;2024-03-06T07:45:21;10.20;71.90
39777;DHT22;25453;48.162;14.510;2024-03-06T07:47:48;10.20;71.80
39777;DHT22;25453;48.162;14.510;2024-03-06T07:50:16;10.20;71.80
39777;DHT22;25453;48.162;14.510;2024-03-06T07:52:46;10.20;71.70
39777;DHT22;25453;48.162;14.510;2024-03-06T07:55:14;10.20;71.80
39777;DHT22;25453;48.162;14.510;2024-03-06T07:57:41;10.30;71.80
39777;DHT22;25453;48.162;14.510;2024-03-06T08:00:13;10.30;71.70
39777;DHT22;25453;48.162;14.510;2024-03-06T08:02:47;10.30;71.50
39777;DHT22;25453;48.162;14.510;2024-03-06T08:05:17;10.30;71.50
39777;DHT22;25453;48.162;14.510;2024-03-06T08:07:45;10.30;71.50
39777;DHT22;25453;48.162;14.510;2024-03-06T08:10:13;10.30;71.40
39777;DHT22;25453;48.162;14.510;2024-03-06T08:12:41;10.30;71.30
39777;DHT22;25453;48.162;14.510;2024-03-06T08:15:11;10.30;71.30
39777;DHT22;25453;48.162;14.510;2024-03-06T08:17:40;10.20;70.90
39777;DHT22;25453;48.162;14.510;2024-03-06T08:20:09;10.20;70.60
39777;DHT22;25453;48.162;14.510;2024-03-06T08:22:41;10.20;70.10
39777;DHT22;25453;48.162;14.510;2024-03-06T08:25:10;10.20;70.20
39777;DHT22;25453;48.162;14.510;2024-03-06T08:27:42;10.20;70.30
39777;DHT22;25453;48.162;14.510;2024-03-06T08:30:09;10.20;69.50
39777;DHT22;25453;48.162;14.510;2024-03-06T08:32:37;10.20;69.20
39777;DHT22;25453;48.162;14.510;2024-03-06T08:35:08;10.20;68.60
39777;DHT22;25453;48.162;14.510;2024-03-06T08:37:40;10.10;67.50
39777;DHT22;25453;48.162;14.510;2024-03-06T08:40:08;10.10;66.50
39777;DHT22;25453;48.162;14.510;2024-03-06T08:42:41;10.00;66.70
39777;DHT22;25453;48.162;14.510;2024-03-06T08:45:10;9.90;66.50
39777;DHT22;25453;48.162;14.510;2024-03-06T08:47:37;9.90;65.80
39777;DHT22;25453;48.162;14.510;2024-03-06T08:50:05;9.80;66.50
39777;DHT22;25453;48.162;14.510;2024-03-06T08:52:35;9.90;66.40
39777;DHT22;25453;48.162;14.510;2024-03-06T08:55:03;9.90;65.30
39777;DHT22;25453;48.162;14.510;2024-03-06T08:57:34;9.80;66.10
39777;DHT22;25453;48.162;14.510;2024-03-06T09:00:03;9.80;66.00
39777;DHT22;25453;48.162;14.510;2024-03-06T09:02:31;9.80;65.20
39777;DHT22;25453;48.162;14.510;2024-03-06T09:04:58;9.80;65.60
39777;DHT22;25453;48.162;14.510;2024-03-06T09:07:25;9.80;65.80
39777;DHT22;25453;48.162;14.510;2024-03-06T09:09:53;9.80;65.50
39777;DHT22;25453;48.162;14.510;2024-03-06T09:12:20;9.80;65.20
39777;DHT22;25453;48.162;14.510;2024-03-06T09:14:47;9.80;65.50
39777;DHT22;25453;48.162;14.510;2024-03-06T09:17:14;9.80;65.40
39777;DHT22;25453;48.162;14.510;2024-03-06T09:19:42;9.80;65.20
39777;DHT22;25453;48.162;14.510;2024-03-06T09:22:29;9.80;64.90
39777;DHT22;25453;48.162;14.510;2024-03-06T09:24:57;9.80;65.40
39777;DHT22;25453;48.162;14.510;2024-03-06T09:27:24;9.80;65.30
39777;DHT22;25453;48.162;14.510;2024-03-06T09:29:52;9.90;65.00
39777;DHT22;25453;48.162;14.510;2024-03-06T09:32:19;9.90;65.00
39777;DHT22;25453;48.162;14.510;2024-03-06T09:34:47;9.90;65.20
39777;DHT22;25453;48.162;14.510;2024-03-06T09:37:15;9.90;65.10
39777;DHT22;25453;48.162;14.510;2024-03-06T09:39:43;9.90;64.40
39777;DHT22;25453;48.162;14.510;2024-03-06T09:42:17;10.00;63.90
39777;DHT22;25453;48.162;14.510;2024-03-06T09:44:44;9.90;63.70
39777;DHT22;25453;48.162;14.510;2024-03-06T09:47:20;9.90;63.90
39777;DHT22;25453;48.162;14.510;2024-03-06T09:49:52;9.90;64.50
39777;DHT22;25453;48.162;14.510;2024-03-06T09:52:24;9.90;63.70
39777;DHT22;25453;48.162;14.510;2024-03-06T09:54:57;9.90;64.00
39777;DHT22;25453;48.162;14.510;2024-03-06T09:57:25;9.90;64.40
39777;DHT22;25453;48.162;14.510;2024-03-06T09:59:52;9.90;64.70
39777;DHT22;25453;48.162;14.510;2024-03-06T10:04:55;10.00;64.80
39777;DHT22;25453;48.162;14.510;2024-03-06T10:07:22;10.10;64.70
39777;DHT22;25453;48.162;14.510;2024-03-06T10:09:49;10.20;64.40
39777;DHT22;25453;48.162;14.510;2024-03-06T10:12:17;10.20;64.50
39777;DHT22;25453;48.162;14.510;2024-03-06T10:14:52;10.30;64.20
39777;DHT22;25453;48.162;14.510;2024-03-06T10:17:21;10.30;63.00
39777;DHT22;25453;48.162;14.510;2024-03-06T10:19:55;10.30;62.90
39777;DHT22;25453;48.162;14.510;2024-03-06T10:22:25;10.30;63.40
39777;DHT22;25453;48.162;14.510;2024-03-06T10:24:56;10.30;63.80
39777;DHT22;25453;48.162;14.510;2024-03-06T10:27:24;10.30;63.90
39777;DHT22;25453;48.162;14.510;2024-03-06T10:30:04;10.40;64.20
39777;DHT22;25453;48.162;14.510;2024-03-06T10:32:33;10.50;64.20
39777;DHT22;25453;48.162;14.510;2024-03-06T10:35:01;10.50;63.50
39777;DHT22;25453;48.162;14.510;2024-03-06T10:37:29;10.50;63.70
39777;DHT22;25453;48.162;14.510;2024-03-06T10:39:58;10.60;63.20
39777;DHT22;25453;48.162;14.510;2024-03-06T10:42:33;10.60;63.50
39777;DHT22;25453;48.162;14.510;2024-03-06T10:45:04;10.70;63.70
39777;DHT22;25453;48.162;14.510;2024-03-06T10:47:31;10.70;63.30
39777;DHT22;25453;48.162;14.510;2024-03-06T10:50:02;10.70;63.20
39777;DHT22;25453;48.162;14.510;2024-03-06T10:52:33;10.70;63.00
39777;DHT22;25453;48.162;14.510;2024-03-06T10:55:02;10.70;63.00
39777;DHT22;25453;48.162;14.510;2024-03-06T10:57:30;10.80;63.20
39777;DHT22;25453;48.162;14.510;2024-03-06T10:59:59;10.80;62.20
39777;DHT22;25453;48.162;14.510;2024-03-06T11:02:31;10.80;62.40
39777;DHT22;25453;48.162;14.510;2024-03-06T11:04:59;10.80;62.70
39777;DHT22;25453;48.162;14.510;2024-03-06T11:07:28;10.80;62.90
39777;DHT22;25453;48.162;14.510;2024-03-06T11:09:58;10.80;63.00
39777;DHT22;25453;48.162;14.510;2024-03-06T11:12:37;10.90;62.90
39777;DHT22;25453;48.162;14.510;2024-03-06T11:15:24;10.90;63.00
39777;DHT22;25453;48.162;14.510;2024-03-06T11:17:54;11.00;62.50
39777;DHT22;25453;48.162;14.510;2024-03-06T11:20:22;11.00;62.40
39777;DHT22;25453;48.162;14.510;2024-03-06T11:28:42;11.00;61.70
39777;DHT22;25453;48.162;14.510;2024-03-06T11:31:19;11.00;61.70
39777;DHT22;25453;48.162;14.510;2024-03-06T11:33:52;11.10;61.70
39777;DHT22;25453;48.162;14.510;2024-03-06T11:36:21;11.10;61.50
39777;DHT22;25453;48.162;14.510;2024-03-06T11:38:59;11.10;61.10
39777;DHT22;25453;48.162;14.510;2024-03-06T11:41:29;11.10;60.60
39777;DHT22;25453;48.162;14.510;2024-03-06T11:43:59;11.10;60.50
39777;DHT22;25453;48.162;14.510;2024-03-06T11:49:26;11.10;60.50
39777;DHT22;25453;48.162;14.510;2024-03-06T11:51:57;11.10;60.60
39777;DHT22;25453;48.162;14.510;2024-03-06T11:54:25;11.20;60.70
39777;DHT22;25453;48.162;14.510;2024-03-06T11:56:59;11.20;60.40
39777;DHT22;25453;48.162;14.510;2024-03-06T11:59:28;11.20;60.20
39777;DHT22;25453;48.162;14.510;2024-03-06T12:01:56;11.30;60.40
39777;DHT22;25453;48.162;14.510;2024-03-06T12:04:24;11.30;60.40
39777;DHT22;25453;48.162;14.510;2024-03-06T12:06:51;11.40;60.40
39777;DHT22;25453;48.162;14.510;2024-03-06T12:09:19;11.50;60.20
39777;DHT22;25453;48.162;14.510;2024-03-06T12:11:47;11.60;59.80
39777;DHT22;25453;48.162;14.510;2024-03-06T12:14:16;11.70;59.60
39777;DHT22;25453;48.162;14.510;2024-03-06T12:17:02;11.80;59.80
39777;DHT22;25453;48.162;14.510;2024-03-06T12:19:34;11.90;59.50
39777;DHT22;25453;48.162;14.510;2024-03-06T12:22:04;11.90;59.20
39777;DHT22;25453;48.162;14.510;2024-03-06T12:24:35;11.90;59.10
39777;DHT22;25453;48.162;14.510;2024-03-06T12:27:04;12.00;59.20
39777;DHT22;25453;48.162;14.510;2024-03-06T12:29:32;12.00;59.30
39777;DHT22;25453;48.162;14.510;2024-03-06T12:32:01;12.10;59.20
39777;DHT22;25453;48.162;14.510;2024-03-06T12:34:30;12.10;58.90
39777;DHT22;25453;48.162;14.510;2024-03-06T12:37:10;12.10;58.80
39777;DHT22;25453;48.162;14.510;2024-03-06T12:39:38;12.10;58.70
39777;DHT22;25453;48.162;14.510;2024-03-06T12:42:10;12.20;58.60
39777;DHT22;25453;48.162;14.510;2024-03-06T12:44:39;12.20;58.40
39777;DHT22;25453;48.162;14.510;2024-03-06T12:47:08;12.10;58.10
39777;DHT22;25453;48.162;14.510;2024-03-06T12:49:35;12.10;58.50
39777;DHT22;25453;48.162;14.510;2024-03-06T12:52:02;12.10;58.50
39777;DHT22;25453;48.162;14.510;2024-03-06T12:54:32;12.10;58.50
39777;DHT22;25453;48.162;14.510;2024-03-06T12:56:59;12.10;58.40
39777;DHT22;25453;48.162;14.510;2024-03-06T12:59:27;12.10;58.40
39777;DHT22;25453;48.162;14.510;2024-03-06T13:01:54;12.00;58.10
39777;DHT22;25453;48.162;14.510;2024-03-06T13:04:21;12.00;58.00
39777;DHT22;25453;48.162;14.510;2024-03-06T13:06:48;11.90;58.30
39777;DHT22;25453;48.162;14.510;2024-03-06T13:09:16;11.90;58.20
39777;DHT22;25453;48.162;14.510;2024-03-06T13:11:43;11.90;58.30
39777;DHT22;25453;48.162;14.510;2024-03-06T13:14:10;11.90;58.40
39777;DHT22;25453;48.162;14.510;2024-03-06T13:16:39;11.80;58.50
39777;DHT22;25453;48.162;14.510;2024-03-06T13:19:07;11.90;58.70
39777;DHT22;25453;48.162;14.510;2024-03-06T13:21:35;11.90;58.60
39777;DHT22;25453;48.162;14.510;2024-03-06T13:24:03;11.90;58.90
39777;DHT22;25453;48.162;14.510;2024-03-06T13:26:30;12.00;58.90
39777;DHT22;25453;48.162;14.510;2024-03-06T13:28:58;12.00;58.80
39777;DHT22;25453;48.162;14.510;2024-03-06T13:31:27;12.00;58.90
39777;DHT22;25453;48.162;14.510;2024-03-06T13:33:54;12.10;58.60
39777;DHT22;25453;48.162;14.510;2024-03-06T13:36:21;12.10;58.50
39777;DHT22;25453;48.162;14.510;2024-03-06T13:38:49;12.00;58.50
39777;DHT22;25453;48.162;14.510;2024-03-06T13:41:17;12.00;58.50
39777;DHT22;25453;48.162;14.510;2024-03-06T13:43:45;12.00;58.50
39777;DHT22;25453;48.162;14.510;2024-03-06T13:46:12;12.00;58.60
39777;DHT22;25453;48.162;14.510;2024-03-06T13:48:39;12.00;58.60
39777;DHT22;25453;48.162;14.510;2024-03-06T13:51:06;12.10;58.50
39777;DHT22;25453;48.162;14.510;2024-03-06T13:53:35;12.10;58.40
39777;DHT22;25453;48.162;14.510;2024-03-06T13:56:05;12.00;58.30
39777;DHT22;25453;48.162;14.510;2024-03-06T13:58:33;12.00;58.40
39777;DHT22;25453;48.162;14.510;2024-03-06T14:01:00;12.00;58.30
39777;DHT22;25453;48.162;14.510;2024-03-06T14:03:27;12.00;58.20
39777;DHT22;25453;48.162;14.510;2024-03-06T14:05:55;12.00;58.20
39777;DHT22;25453;48.162;14.510;2024-03-06T14:08:22;11.90;58.40
39777;DHT22;25453;48.162;14.510;2024-03-06T14:10:50;11.90;58.40
39777;DHT22;25453;48.162;14.510;2024-03-06T14:13:17;12.00;58.50
39777;DHT22;25453;48.162;14.510;2024-03-06T14:15:44;12.00;58.20
39777;DHT22;25453;48.162;14.510;2024-03-06T14:18:11;12.00;58.30
39777;DHT22;25453;48.162;14.510;2024-03-06T14:20:39;11.90;58.20
39777;DHT22;25453;48.162;14.510;2024-03-06T14:23:07;11.90;58.40
39777;DHT22;25453;48.162;14.510;2024-03-06T14:25:35;12.00;58.40
39777;DHT22;25453;48.162;14.510;2024-03-06T14:28:04;12.00;58.50
39777;DHT22;25453;48.162;14.510;2024-03-06T14:30:32;12.00;58.00
39777;DHT22;25453;48.162;14.510;2024-03-06T14:32:59;12.00;58.00
39777;DHT22;25453;48.162;14.510;2024-03-06T14:35:26;12.00;58.10
39777;DHT22;25453;48.162;14.510;2024-03-06T14:37:53;12.00;58.30
39777;DHT22;25453;48.162;14.510;2024-03-06T14:40:21;12.00;58.40
39777;DHT22;25453;48.162;14.510;2024-03-06T14:42:48;12.00;58.40
39777;DHT22;25453;48.162;14.510;2024-03-06T14:45:19;12.00;58.30
39777;DHT22;25453;48.162;14.510;2024-03-06T14:47:46;12.00;58.00
39777;DHT22;25453;48.162;14.510;2024-03-06T14:50:14;11.90;58.10
39777;DHT22;25453;48.162;14.510;2024-03-06T14:52:41;11.90;58.20
39777;DHT22;25453;48.162;14.510;2024-03-06T14:55:08;11.90;58.20
39777;DHT22;25453;48.162;14.510;2024-03-06T14:57:36;11.90;58.30
39777;DHT22;25453;48.162;14.510;2024-03-06T15:00:04;11.90;58.20
39777;DHT22;25453;48.162;14.510;2024-03-06T15:02:34;11.80;58.20
39777;DHT22;25453;48.162;14.510;2024-03-06T15:05:02;11.80;58.30
39777;DHT22;25453;48.162;14.510;2024-03-06T15:07:29;11.80;58.20
39777;DHT22;25453;48.162;14.510;2024-03-06T15:09:57;11.80;58.30
39777;DHT22;25453;48.162;14.510;2024-03-06T15:12:25;11.80;58.40
39777;DHT22;25453;48.162;14.510;2024-03-06T15:14:52;11.80;58.40
39777;DHT22;25453;48.162;14.510;2024-03-06T15:17:24;11.80;58.50
39777;DHT22;25453;48.162;14.510;2024-03-06T15:19:55;11.80;58.50
39777;DHT22;25453;48.162;14.510;2024-03-06T15:22:24;11.80;58.40
39777;DHT22;25453;48.162;14.510;2024-03-06T15:24:51;11.80;58.50
39777;DHT22;25453;48.162;14.510;2024-03-06T15:27:18;11.80;58.40
39777;DHT22;25453;48.162;14.510;2024-03-06T15:29:45;11.80;58.40
39777;DHT22;25453;48.162;14.510;2024-03-06T15:32:13;11.80;58.40
39777;DHT22;25453;48.162;14.510;2024-03-06T15:34:40;11.80;58.50
39777;DHT22;25453;48.162;14.510;2024-03-06T15:37:07;11.80;58.50
39777;DHT22;25453;48.162;14.510;2024-03-06T15:39:34;11.80;58.50
39777;DHT22;25453;48.162;14.510;2024-03-06T15:42:01;11.80;58.30
39777;DHT22;25453;48.162;14.510;2024-03-06T15:44:29;11.80;58.40
39777;DHT22;25453;48.162;14.510;2024-03-06T15:46:57;11.80;58.40
39777;DHT22;25453;48.162;14.510;2024-03-06T15:49:36;11.80;58.40